Flight Track Log - Related Links

Times and Time Zones

All times are in EDT time to prevent confusion due to time zone crossing. See the SWA378 flight status page for this flight to view local times or setup timezone preferences in your user account.

Time Position Orientation Groundspeed Altitude Reporting Facility
EDT Latitude Longitude Course Direction KTS MPH feet Rate Location/Type
Mon 08:27:53 PM 36.9244 -76.1739 30° Northeast 196 226 1,800  Level Washington Center
Mon 08:28:17 PM 36.9475 -76.1742 359° North 204 235 3,200 3,344 Climbing Washington Center
Mon 08:28:54 PM 36.9556 -76.2156 284° West 218 251 5,200 3,541 Climbing Washington Center
Mon 08:29:18 PM 36.9492 -76.2469 256° West 255 293 6,800 4,390 Climbing Washington Center
Mon 08:30:16 PM 36.9403 -76.3403 263° West 281 323 11,200 4,185 Climbing Washington Center
Mon 08:31:17 PM 36.9375 -76.4519 268° West 304 350 15,100 2,361 Climbing Washington Center
Mon 08:32:18 PM 36.9450 -76.5639 275° West 317 365 16,000 446 Climbing Washington Center
Mon 08:33:18 PM 36.9881 -76.6553 301° West 312 359 16,000  Level Washington Center
Mon 08:34:16 PM 37.0497 -76.7394 313° West 312 359 16,000  Level Washington Center
Mon 08:35:17 PM 37.1219 -76.8161 320° Northwest 323 372 16,000  Level Washington Center
Mon 08:36:18 PM 37.1961 -76.8981 319° Northwest 345 397 16,000  Level Washington Center
Mon 08:37:16 PM 37.2556 -76.9983 307° West 351 404 16,000  Level Washington Center
Mon 08:38:17 PM 37.3214 -77.0700 319° Northwest 356 410 16,000  Level Washington Center
Mon 08:39:17 PM 37.4278 -77.0772 357° North 333 383 16,000  Level Washington Center
Mon 08:40:16 PM 37.5217 -77.0844 357° North 341 392 16,000  Level Washington Center
Mon 08:41:16 PM 37.6236 -77.0889 358° North 358 412 16,000  Level Washington Center
Mon 08:42:17 PM 37.7217 -77.0961 357° North 358 412 16,000  Level Washington Center
Mon 08:43:18 PM 37.8217 -77.1008 358° North 358 412 16,000  Level Washington Center
Mon 08:44:16 PM 37.9239 -77.1081 357° North 358 412 16,000  Level Washington Center
Mon 08:45:17 PM 38.0217 -77.1153 357° North 358 412 16,000  Level Washington Center
Mon 08:46:16 PM 38.1239 -77.1225 357° North 358 412 16,000 -202 Level Washington Center
Mon 08:47:16 PM 38.2217 -77.1272 358° North 358 412 15,600 -545 Descending Washington Center
Mon 08:48:17 PM 38.3197 -77.1347 357° North 348 400 14,900 -836 Descending Washington Center
Mon 08:49:18 PM 38.4197 -77.1419 357° North 332 382 13,900 -1,550 Descending Washington Center
Mon 08:50:17 PM 38.4744 -77.0928 35° Northeast 282 325 11,800 -1,513 Descending Washington Center
Mon 08:51:17 PM 38.5297 -77.0117 49° Northeast 275 316 10,900 -400 Descending Washington Center
Mon 08:52:17 PM 38.5806 -76.9328 50° Northeast 275 316 11,000 50 Climbing Washington Center
Mon 08:53:18 PM 38.6336 -76.8542 49° Northeast 281 323 11,000 -595 Level Washington Center
Mon 08:54:18 PM 38.6761 -76.7883 50° Northeast 266 306 9,800 -1,169 Descending Washington Center
Mon 08:55:16 PM 38.7164 -76.7172 54° Northeast 255 293 8,700 -1,068 Descending Washington Center
Mon 08:56:16 PM 38.7483 -76.6431 61° Northeast 243 280 7,700 -1,071 Descending Washington Center
Mon 08:57:08 PM 38.7500 -76.5667 88° East 237 273 6,700 -911 Descending Potomac TRACON
Mon 08:58:08 PM 38.6833 -76.5833 191° South 231 266 6,000 -300 Descending Potomac TRACON
Mon 08:59:08 PM 38.6500 -76.6500 237° Southwest 228 262 6,100 50 Climbing Potomac TRACON
Mon 09:00:09 PM 38.6833 -76.7167 303° West 239 275 6,100  Level Potomac TRACON
Mon 09:01:09 PM 38.7333 -76.6833 27° Northeast 242 278 6,100  Level Potomac TRACON
Mon 09:02:09 PM 38.7667 -76.6167 57° Northeast 230 265 6,100  Level Potomac TRACON
Mon 09:03:09 PM 38.8000 -76.5500 57° Northeast 228 262 6,100 -298 Level Potomac TRACON
Mon 09:04:10 PM 38.8500 -76.5333 15° North 237 273 5,500 -835 Descending Potomac TRACON
Mon 09:05:04 PM 38.9167 -76.5667 339° North 232 267 4,500 -789 Descending Potomac TRACON
Mon 09:06:04 PM 38.9667 -76.6000 333° Northwest 242 278 4,000 -263 Descending Potomac TRACON
Mon 09:06:58 PM 39.0000 -76.6667 303° West 234 269 4,000  Level Potomac TRACON
Mon 09:08:04 PM 39.0333 -76.7500 297° West 232 267 4,000  Level Potomac TRACON
Mon 09:09:04 PM 39.0500 -76.8167 288° West 191 220 4,000  Level Potomac TRACON
Mon 09:10:04 PM 39.0667 -76.8833 288° West 184 212 4,000  Level Potomac TRACON
Mon 09:11:04 PM 39.0833 -76.9333 293° West 190 219 4,000  Level Potomac TRACON
Mon 09:12:04 PM 39.1000 -77.0000 288° West 194 223 4,000  Level Potomac TRACON
Mon 09:13:04 PM 39.1333 -77.0500 311° West 195 224 4,000  Level Potomac TRACON

Login

Don't have an account? Register now (free) for customized features, flight alerts, and more!